Time;durP1;ratioP1;P1;durP2;ratioP2;P2;SDS_P1;SDS_P2;PMS_P1;PMS_P2;Temp;Humidity;BMP_temperature;BMP_pressure;BME280_temperature;BME280_humidity;BME280_pressure;Samples;Min_cycle;Max_cycle;Signal;HPM_P1;HPM_P2
2022/04/01 00:00:57;;;;;;;11.20;5.23;;;;;;;;;;4983673;28;20223;-59
2022/04/01 00:03:23;;;;;;;8.83;5.30;;;;;;;;;;4982387;28;20667;-59
2022/04/01 00:05:48;;;;;;;9.60;5.63;;;;;;;;;;4983290;28;20593;-59
2022/04/01 00:08:13;;;;;;;9.27;5.50;;;;;;;;;;4983249;28;20668;-59
2022/04/01 00:10:39;;;;;;;9.20;5.30;;;;;;;;;;4982951;28;20237;-59
2022/04/01 00:13:04;;;;;;;8.47;4.77;;;;;;;;;;4986077;28;20209;-59
2022/04/01 00:15:30;;;;;;;8.47;5.10;;;;;;;;;;4979156;28;20240;-59
2022/04/01 00:17:56;;;;;;;6.13;4.37;;;;;;;;;;4978835;28;20307;-59
2022/04/01 00:20:21;;;;;;;8.57;4.30;;;;;;;;;;4979057;28;20220;-59
2022/04/01 00:22:46;;;;;;;7.97;5.07;;;;;;;;;;4986078;28;20217;-59
2022/04/01 00:25:11;;;;;;;7.73;4.60;;;;;;;;;;4986188;28;20245;-59
2022/04/01 00:27:37;;;;;;;8.67;5.23;;;;;;;;;;4987293;28;20569;-59
2022/04/01 00:30:02;;;;;;;9.33;5.30;;;;;;;;;;4985993;28;20260;-59
2022/04/01 00:32:28;;;;;;;9.37;5.67;;;;;;;;;;4986221;28;20304;-59
2022/04/01 00:34:54;;;;;;;7.50;4.93;;;;;;;;;;5005670;28;20240;-59
2022/04/01 00:37:19;;;;;;;10.03;4.93;;;;;;;;;;5000716;28;20310;-59
2022/04/01 00:39:44;;;;;;;8.00;5.13;;;;;;;;;;4997756;28;20227;-59
2022/04/01 00:42:09;;;;;;;9.90;5.43;;;;;;;;;;4996633;28;20220;-58
2022/04/01 00:44:36;;;;;;;8.70;4.87;;;;;;;;;;5001432;28;20244;-59
2022/04/01 00:47:02;;;;;;;8.27;5.30;;;;;;;;;;5001888;28;20588;-59
2022/04/01 00:49:28;;;;;;;6.83;4.80;;;;;;;;;;5020582;28;21182;-59
2022/04/01 00:51:54;;;;;;;8.50;5.70;;;;;;;;;;5005458;28;20228;-59
2022/04/01 00:54:20;;;;;;;9.60;5.73;;;;;;;;;;5005129;28;21009;-59
2022/04/01 00:56:45;;;;;;;8.77;4.80;;;;;;;;;;5006125;28;20224;-59
2022/04/01 00:59:11;;;;;;;8.43;5.87;;;;;;;;;;4980854;28;20234;-59
2022/04/01 01:01:36;;;;;;;9.33;5.90;;;;;;;;;;4976824;28;20213;-59
2022/04/01 01:04:02;;;;;;;8.30;5.03;;;;;;;;;;4995018;28;20224;-59
2022/04/01 01:06:28;;;;;;;9.07;6.43;;;;;;;;;;4998901;28;20540;-59
2022/04/01 01:08:54;;;;;;;8.80;6.40;;;;;;;;;;5005574;28;20220;-59
2022/04/01 01:11:20;;;;;;;9.10;6.70;;;;;;;;;;5004829;28;20694;-59
2022/04/01 01:13:45;;;;;;;7.87;6.00;;;;;;;;;;5004750;28;20255;-59
2022/04/01 01:16:11;;;;;;;10.13;7.70;;;;;;;;;;5004551;28;20295;-59
2022/04/01 01:18:36;;;;;;;9.73;7.40;;;;;;;;;;5005220;28;20209;-59
2022/04/01 01:21:01;;;;;;;11.83;8.13;;;;;;;;;;5004557;28;20220;-59
2022/04/01 01:23:29;;;;;;;12.10;7.77;;;;;;;;;;4997850;28;20611;-59
2022/04/01 01:25:54;;;;;;;10.20;7.70;;;;;;;;;;5012499;28;20665;-59
2022/04/01 01:28:20;;;;;;;10.83;8.37;;;;;;;;;;4996960;28;20208;-59
2022/04/01 01:30:46;;;;;;;10.07;7.33;;;;;;;;;;5001548;28;20239;-59
2022/04/01 01:33:11;;;;;;;10.37;7.10;;;;;;;;;;5004536;28;20231;-59
2022/04/01 01:35:36;;;;;;;10.57;6.97;;;;;;;;;;5004838;28;20220;-59
2022/04/01 01:38:02;;;;;;;9.50;6.80;;;;;;;;;;5004572;28;20719;-59
2022/04/01 01:40:27;;;;;;;10.53;7.07;;;;;;;;;;5005350;28;20239;-59
2022/04/01 01:42:52;;;;;;;9.23;6.43;;;;;;;;;;5004079;28;20227;-59
2022/04/01 01:45:19;;;;;;;9.30;6.40;;;;;;;;;;5000419;28;20209;-59
2022/04/01 01:47:44;;;;;;;9.17;5.87;;;;;;;;;;4987987;28;20249;-58
2022/04/01 01:55:38;;;;;;;8.10;5.80;;;;;;;;;;5004184;28;20239;-59
2022/04/01 01:58:03;;;;;;;9.47;6.40;;;;;;;;;;5002787;28;20754;-59
2022/04/01 02:00:29;;;;;;;6.93;5.20;;;;;;;;;;4985314;28;20225;-59
2022/04/01 02:02:54;;;;;;;8.30;5.23;;;;;;;;;;4984872;28;20227;-59
2022/04/01 02:05:19;;;;;;;8.50;5.90;;;;;;;;;;4984569;28;20224;-58
2022/04/01 02:07:47;;;;;;;8.20;5.50;;;;;;;;;;4982120;28;20327;-59
2022/04/01 02:10:13;;;;;;;7.97;6.13;;;;;;;;;;4995322;28;20284;-58
2022/04/01 02:12:38;;;;;;;8.67;5.90;;;;;;;;;;4992472;28;20225;-59
2022/04/01 02:15:04;;;;;;;7.73;5.43;;;;;;;;;;4980250;28;20224;-58
2022/04/01 02:17:31;;;;;;;7.30;5.40;;;;;;;;;;4984542;28;20241;-59
2022/04/01 02:19:56;;;;;;;7.97;5.87;;;;;;;;;;4984834;28;20220;-59
2022/04/01 02:22:22;;;;;;;8.50;6.10;;;;;;;;;;5003695;28;20224;-58
2022/04/01 02:24:50;;;;;;;7.50;5.40;;;;;;;;;;5003992;28;20327;-59
2022/04/01 02:27:17;;;;;;;7.80;5.47;;;;;;;;;;5003613;28;20744;-59
2022/04/01 02:29:42;;;;;;;8.10;5.43;;;;;;;;;;5002404;28;20231;-58
2022/04/01 02:32:08;;;;;;;7.40;5.27;;;;;;;;;;4995248;28;20545;-59
2022/04/01 02:34:33;;;;;;;7.03;4.97;;;;;;;;;;4995378;28;20308;-58
2022/04/01 02:36:59;;;;;;;7.37;5.67;;;;;;;;;;4997086;28;20227;-59
2022/04/01 02:39:24;;;;;;;8.83;4.93;;;;;;;;;;5003207;28;20209;-58
2022/04/01 02:41:50;;;;;;;7.57;4.77;;;;;;;;;;5003927;28;20231;-59
2022/04/01 02:44:15;;;;;;;8.37;5.13;;;;;;;;;;5002707;28;20287;-59
2022/04/01 02:46:43;;;;;;;6.70;4.90;;;;;;;;;;5002794;28;20741;-59
2022/04/01 02:49:08;;;;;;;6.87;4.87;;;;;;;;;;5002714;28;20226;-59
2022/04/01 02:51:36;;;;;;;8.37;5.13;;;;;;;;;;5002943;28;20236;-59
2022/04/01 02:54:03;;;;;;;6.93;4.80;;;;;;;;;;4996219;28;20597;-59
2022/04/01 02:56:29;;;;;;;8.73;5.87;;;;;;;;;;4995643;28;20216;-59
2022/04/01 02:58:55;;;;;;;9.03;5.20;;;;;;;;;;4987102;28;20224;-59
2022/04/01 03:01:21;;;;;;;8.10;5.80;;;;;;;;;;4999888;28;20212;-58
2022/04/01 03:03:46;;;;;;;8.67;5.50;;;;;;;;;;5003585;28;20215;-59
2022/04/01 03:06:12;;;;;;;8.83;6.40;;;;;;;;;;5002364;28;20216;-58
2022/04/01 03:08:40;;;;;;;7.97;5.43;;;;;;;;;;5003160;28;20654;-59
2022/04/01 03:11:06;;;;;;;7.37;5.40;;;;;;;;;;5002924;28;20780;-58
2022/04/01 03:13:31;;;;;;;8.50;5.60;;;;;;;;;;5002412;28;20296;-58
2022/04/01 03:15:56;;;;;;;7.60;5.67;;;;;;;;;;4999018;28;20212;-59
2022/04/01 03:18:23;;;;;;;7.73;5.70;;;;;;;;;;4973566;28;20569;-59
2022/04/01 03:20:48;;;;;;;7.90;5.60;;;;;;;;;;4994170;28;20281;-59
2022/04/01 03:23:14;;;;;;;8.17;5.43;;;;;;;;;;4998707;28;20208;-59
2022/04/01 03:25:39;;;;;;;9.70;5.53;;;;;;;;;;5002905;28;20266;-59
2022/04/01 03:28:04;;;;;;;6.80;5.00;;;;;;;;;;5002279;28;20562;-59
2022/04/01 03:30:30;;;;;;;7.00;4.80;;;;;;;;;;5002590;28;20248;-58
2022/04/01 03:32:55;;;;;;;7.93;4.90;;;;;;;;;;5002717;28;20215;-58
2022/04/01 03:35:21;;;;;;;8.87;4.93;;;;;;;;;;5002087;28;20228;-59
2022/04/01 03:37:46;;;;;;;8.80;5.20;;;;;;;;;;5001865;28;20204;-59
2022/04/01 03:40:14;;;;;;;8.20;5.40;;;;;;;;;;4994520;28;20631;-58
2022/04/01 03:42:40;;;;;;;7.10;5.60;;;;;;;;;;4993946;28;20414;-58
2022/04/01 03:45:06;;;;;;;8.07;6.23;;;;;;;;;;4995411;28;20263;-59
2022/04/01 03:47:36;;;;;;;9.07;5.53;;;;;;;;;;4994573;28;20675;-59
2022/04/01 03:50:02;;;;;;;7.53;5.20;;;;;;;;;;5000348;28;20238;-59
2022/04/01 03:52:28;;;;;;;8.83;5.57;;;;;;;;;;5003106;28;20668;-58
2022/04/01 03:54:54;;;;;;;7.83;5.43;;;;;;;;;;5001132;28;20712;-58
2022/04/01 03:57:20;;;;;;;9.93;5.40;;;;;;;;;;5002151;28;20244;-58
2022/04/01 03:59:48;;;;;;;7.43;5.00;;;;;;;;;;4998147;28;20232;-58
2022/04/01 04:02:13;;;;;;;7.97;4.60;;;;;;;;;;4994471;28;20224;-58
2022/04/01 04:04:38;;;;;;;7.80;4.97;;;;;;;;;;4994248;28;20356;-58
2022/04/01 04:07:29;;;;;;;9.53;5.13;;;;;;;;;;4994991;28;20710;-58
2022/04/01 04:09:54;;;;;;;6.97;4.33;;;;;;;;;;5001407;28;20572;-58
2022/04/01 04:12:22;;;;;;;6.60;4.67;;;;;;;;;;5000720;28;20223;-58
2022/04/01 04:14:51;;;;;;;7.87;4.80;;;;;;;;;;5002884;28;20228;-58
2022/04/01 04:17:16;;;;;;;7.63;4.83;;;;;;;;;;4983856;28;20224;-58
2022/04/01 04:19:50;;;;;;;7.17;4.73;;;;;;;;;;5002118;28;20224;-59
2022/04/01 04:22:16;;;;;;;6.93;5.03;;;;;;;;;;5000988;28;20224;-58
2022/04/01 04:24:48;;;;;;;5.87;4.10;;;;;;;;;;4993708;28;20220;-59
2022/04/01 04:27:16;;;;;;;5.40;3.83;;;;;;;;;;4992657;28;20248;-58
2022/04/01 04:29:46;;;;;;;7.57;4.60;;;;;;;;;;4994786;28;20213;-58
2022/04/01 04:32:13;;;;;;;6.37;4.00;;;;;;;;;;4998518;28;20216;-58
2022/04/01 04:34:38;;;;;;;6.70;3.67;;;;;;;;;;5000871;28;20584;-58
2022/04/01 04:37:09;;;;;;;6.87;3.90;;;;;;;;;;5000470;28;20204;-58
2022/04/01 04:39:35;;;;;;;8.17;4.03;;;;;;;;;;5001946;28;20223;-58
2022/04/01 04:42:02;;;;;;;5.47;3.50;;;;;;;;;;5002495;28;20216;-58
2022/04/01 04:44:29;;;;;;;6.67;3.63;;;;;;;;;;5001756;28;20208;-58
2022/04/01 04:46:56;;;;;;;5.73;3.60;;;;;;;;;;4995715;28;20465;-58
2022/04/01 04:49:21;;;;;;;5.63;3.60;;;;;;;;;;4993425;28;20216;-58
2022/04/01 04:51:48;;;;;;;7.20;4.20;;;;;;;;;;4992650;28;20235;-59
2022/04/01 04:54:13;;;;;;;5.17;3.53;;;;;;;;;;4998613;28;20224;-58
2022/04/01 04:56:39;;;;;;;5.50;3.40;;;;;;;;;;5002313;28;20231;-58
2022/04/01 04:59:05;;;;;;;7.93;4.10;;;;;;;;;;4999434;28;20215;-59
2022/04/01 05:01:38;;;;;;;7.10;4.20;;;;;;;;;;5003044;28;20231;-59
2022/04/01 05:04:09;;;;;;;6.90;3.67;;;;;;;;;;5005362;28;20224;-58
2022/04/01 05:06:39;;;;;;;6.73;3.63;;;;;;;;;;5004813;28;20556;-58
2022/04/01 05:09:10;;;;;;;7.13;3.60;;;;;;;;;;5001766;28;20216;-59
2022/04/01 05:11:46;;;;;;;6.50;3.70;;;;;;;;;;4997424;28;20298;-59
2022/04/01 05:14:31;;;;;;;8.33;4.60;;;;;;;;;;4995546;28;20216;-59
2022/04/01 05:17:01;;;;;;;5.90;3.03;;;;;;;;;;5001481;28;20208;-59
2022/04/01 05:19:27;;;;;;;5.80;3.60;;;;;;;;;;5004944;28;20212;-58
2022/04/01 05:22:01;;;;;;;5.07;3.20;;;;;;;;;;5004752;28;20216;-58
2022/04/01 05:24:30;;;;;;;6.47;3.10;;;;;;;;;;5005060;28;20215;-59
2022/04/01 05:26:55;;;;;;;6.17;3.53;;;;;;;;;;5003712;28;20208;-59
2022/04/01 05:29:25;;;;;;;5.07;3.27;;;;;;;;;;5004417;28;20239;-59
2022/04/01 05:31:55;;;;;;;7.27;3.40;;;;;;;;;;5001018;28;20224;-59
2022/04/01 05:34:40;;;;;;;6.53;3.70;;;;;;;;;;4987827;28;20672;-58
2022/04/01 05:37:05;;;;;;;6.33;3.47;;;;;;;;;;4996395;28;20228;-58
2022/04/01 05:39:31;;;;;;;6.43;3.27;;;;;;;;;;5001612;28;20212;-59
2022/04/01 05:41:57;;;;;;;5.97;3.70;;;;;;;;;;5003366;28;20299;-59
2022/04/01 05:44:22;;;;;;;7.00;3.60;;;;;;;;;;5003091;28;20303;-59
2022/04/01 05:46:48;;;;;;;5.17;3.40;;;;;;;;;;5002116;28;20241;-59
2022/04/01 05:49:14;;;;;;;8.50;3.50;;;;;;;;;;4984384;28;20678;-59
2022/04/01 05:51:40;;;;;;;6.37;3.53;;;;;;;;;;4984959;28;20240;-58
2022/04/01 05:54:05;;;;;;;7.50;3.60;;;;;;;;;;4981685;28;20225;-59
2022/04/01 05:56:32;;;;;;;6.10;3.33;;;;;;;;;;4977285;28;20268;-58
2022/04/01 05:58:57;;;;;;;8.20;3.80;;;;;;;;;;4987936;28;20235;-58
2022/04/01 06:01:23;;;;;;;6.57;3.43;;;;;;;;;;4979000;28;20209;-59
2022/04/01 06:04:06;;;;;;;8.50;3.90;;;;;;;;;;4984074;28;20420;-58
2022/04/01 06:06:40;;;;;;;6.20;3.47;;;;;;;;;;5003829;28;20220;-59
2022/04/01 06:09:14;;;;;;;5.40;3.03;;;;;;;;;;5003457;28;20263;-58
2022/04/01 06:11:43;;;;;;;6.13;3.33;;;;;;;;;;5004120;28;20642;-58
2022/04/01 06:14:12;;;;;;;10.00;3.47;;;;;;;;;;5004024;28;20683;-58
2022/04/01 06:16:43;;;;;;;5.83;3.57;;;;;;;;;;5001413;28;20247;-58
2022/04/01 06:19:08;;;;;;;4.97;3.27;;;;;;;;;;4995773;28;20601;-58
2022/04/01 06:21:38;;;;;;;6.13;3.10;;;;;;;;;;4996257;28;20552;-58
2022/04/01 06:24:07;;;;;;;6.53;3.13;;;;;;;;;;4997968;28;20222;-58
2022/04/01 06:26:34;;;;;;;6.13;3.13;;;;;;;;;;5004055;28;20217;-58
2022/04/01 06:29:01;;;;;;;4.90;3.03;;;;;;;;;;5003812;28;20215;-58
2022/04/01 06:31:26;;;;;;;7.90;3.40;;;;;;;;;;5003376;28;20263;-58
2022/04/01 06:33:51;;;;;;;6.30;3.13;;;;;;;;;;4983371;28;20783;-57
2022/04/01 06:36:18;;;;;;;5.83;2.90;;;;;;;;;;4983980;28;20284;-58
2022/04/01 06:38:49;;;;;;;5.77;2.97;;;;;;;;;;5001763;28;20267;-58
2022/04/01 06:41:17;;;;;;;7.00;3.10;;;;;;;;;;4994169;28;20282;-58
2022/04/01 06:43:43;;;;;;;5.00;3.20;;;;;;;;;;4995307;28;20667;-58
2022/04/01 06:46:08;;;;;;;4.90;3.07;;;;;;;;;;4996282;28;20219;-58
2022/04/01 06:48:34;;;;;;;6.47;3.50;;;;;;;;;;4987852;28;20221;-58
2022/04/01 06:50:59;;;;;;;7.13;3.07;;;;;;;;;;4983687;28;20225;-58
2022/04/01 06:53:25;;;;;;;6.77;3.40;;;;;;;;;;5001436;28;20311;-58
2022/04/01 06:55:52;;;;;;;4.63;2.77;;;;;;;;;;5003326;28;20741;-57
2022/04/01 06:58:18;;;;;;;4.53;2.87;;;;;;;;;;4998050;28;20209;-58
2022/04/01 07:00:43;;;;;;;7.43;3.00;;;;;;;;;;4988776;28;20213;-57
2022/04/01 07:03:09;;;;;;;8.02;4.13;;;;;;;;;;5000859;28;20941;-57
2022/04/01 07:05:35;;;;;;;8.13;3.53;;;;;;;;;;5012353;28;20667;-58
2022/04/01 07:08:02;;;;;;;6.33;2.83;;;;;;;;;;5012617;28;20211;-57
2022/04/01 07:10:27;;;;;;;7.13;3.23;;;;;;;;;;5012318;28;20274;-58
2022/04/01 07:12:52;;;;;;;6.53;3.30;;;;;;;;;;5010883;28;20220;-58
2022/04/01 07:15:17;;;;;;;6.37;3.33;;;;;;;;;;5012192;28;20205;-58
2022/04/01 07:17:43;;;;;;;7.03;3.40;;;;;;;;;;5012971;28;20579;-58
2022/04/01 07:20:10;;;;;;;6.97;3.60;;;;;;;;;;5010957;28;20228;-59
2022/04/01 07:22:36;;;;;;;6.13;3.27;;;;;;;;;;5011829;28;20702;-58
2022/04/01 07:25:01;;;;;;;7.40;3.40;;;;;;;;;;5012228;28;20200;-57
2022/04/01 07:27:27;;;;;;;6.27;3.20;;;;;;;;;;5011760;28;20235;-58
2022/04/01 07:29:52;;;;;;;5.23;2.57;;;;;;;;;;5012870;28;20580;-57
2022/04/01 07:32:29;;;;;;;6.83;2.80;;;;;;;;;;5012490;28;20248;-58
2022/04/01 07:34:54;;;;;;;6.83;3.03;;;;;;;;;;5012219;28;20218;-58
2022/04/01 07:37:23;;;;;;;5.17;2.70;;;;;;;;;;5012335;28;20212;-58
2022/04/01 07:39:49;;;;;;;5.33;2.70;;;;;;;;;;5012286;28;20216;-58
2022/04/01 07:42:14;;;;;;;6.57;2.83;;;;;;;;;;5011637;28;20212;-58
2022/04/01 07:44:39;;;;;;;5.63;2.47;;;;;;;;;;5011525;28;20216;-57
2022/04/01 07:47:09;;;;;;;6.37;2.67;;;;;;;;;;5011317;28;20211;-57
2022/04/01 07:49:34;;;;;;;5.00;2.20;;;;;;;;;;5012678;28;20224;-58
2022/04/01 07:51:59;;;;;;;6.77;2.40;;;;;;;;;;5012872;28;20576;-58
2022/04/01 07:54:25;;;;;;;5.03;2.20;;;;;;;;;;5011187;28;20216;-58
2022/04/01 07:56:50;;;;;;;5.40;2.50;;;;;;;;;;5011484;28;20655;-58
2022/04/01 07:59:15;;;;;;;4.17;2.20;;;;;;;;;;5011492;28;20212;-58
2022/04/01 08:01:41;;;;;;;3.40;1.97;;;;;;;;;;5011448;28;20204;-57
2022/04/01 08:04:06;;;;;;;4.80;2.20;;;;;;;;;;5010717;28;20208;-58
2022/04/01 08:06:31;;;;;;;6.07;2.00;;;;;;;;;;5012285;28;20229;-58
2022/04/01 08:08:58;;;;;;;2.90;1.60;;;;;;;;;;5010864;28;20667;-58
2022/04/01 08:11:24;;;;;;;6.63;2.40;;;;;;;;;;5010745;28;20228;-58
2022/04/01 08:13:49;;;;;;;7.10;3.13;;;;;;;;;;5012253;28;20576;-58
2022/04/01 08:16:15;;;;;;;4.83;1.87;;;;;;;;;;5010624;28;20205;-57
2022/04/01 08:18:40;;;;;;;4.13;1.77;;;;;;;;;;5012451;28;20212;-58
2022/04/01 08:21:06;;;;;;;5.13;1.83;;;;;;;;;;5008702;28;20282;-58
2022/04/01 08:23:34;;;;;;;3.63;1.53;;;;;;;;;;5010908;28;20220;-58
2022/04/01 08:26:00;;;;;;;4.70;1.50;;;;;;;;;;5012061;28;20212;-58
2022/04/01 08:28:26;;;;;;;4.30;1.83;;;;;;;;;;5011190;28;20686;-58
2022/04/01 08:30:51;;;;;;;11.23;3.53;;;;;;;;;;5010547;28;20224;-59
2022/04/01 08:33:17;;;;;;;21.80;5.53;;;;;;;;;;5013748;28;20224;-59
2022/04/01 08:35:42;;;;;;;26.13;5.77;;;;;;;;;;5015971;28;20682;-59
2022/04/01 08:38:09;;;;;;;76.97;16.73;;;;;;;;;;5015422;28;20243;-59
2022/04/01 08:40:34;;;;;;;6.10;2.10;;;;;;;;;;5015676;28;20248;-59
2022/04/01 08:42:59;;;;;;;3.13;1.87;;;;;;;;;;5013835;28;20243;-58
2022/04/01 08:45:24;;;;;;;4.10;1.60;;;;;;;;;;5015108;28;20254;-58
2022/04/01 08:47:50;;;;;;;3.03;1.43;;;;;;;;;;5014381;28;20642;-58
2022/04/01 08:50:15;;;;;;;4.83;1.97;;;;;;;;;;5013988;28;20224;-59
2022/04/01 08:52:41;;;;;;;3.63;1.77;;;;;;;;;;5015450;28;20220;-58
2022/04/01 08:55:07;;;;;;;4.53;3.10;;;;;;;;;;5015205;28;20244;-59
2022/04/01 08:57:39;;;;;;;4.90;2.10;;;;;;;;;;5014066;28;20216;-59
2022/04/01 09:00:25;;;;;;;6.53;2.03;;;;;;;;;;5015202;28;20217;-58
2022/04/01 09:02:57;;;;;;;5.63;1.73;;;;;;;;;;5015372;28;20319;-59
2022/04/01 09:05:22;;;;;;;4.47;1.80;;;;;;;;;;5014444;28;20239;-59
2022/04/01 09:07:48;;;;;;;4.27;1.60;;;;;;;;;;5016002;28;20240;-59
2022/04/01 09:10:13;;;;;;;3.30;1.67;;;;;;;;;;5013775;28;20624;-59
2022/04/01 09:12:48;;;;;;;3.83;1.50;;;;;;;;;;5014584;28;20228;-59
2022/04/01 09:15:13;;;;;;;5.07;1.60;;;;;;;;;;5015051;28;20242;-59
2022/04/01 09:17:39;;;;;;;3.87;1.80;;;;;;;;;;5015081;28;20216;-59
2022/04/01 09:20:06;;;;;;;5.07;1.80;;;;;;;;;;5014337;28;20220;-58
2022/04/01 09:22:32;;;;;;;5.93;2.33;;;;;;;;;;5015241;28;20581;-59
2022/04/01 09:25:05;;;;;;;3.80;1.83;;;;;;;;;;5015072;28;20222;-59
2022/04/01 09:27:38;;;;;;;5.00;2.07;;;;;;;;;;5014926;28;20216;-59
2022/04/01 09:30:04;;;;;;;4.80;2.10;;;;;;;;;;5014488;28;20355;-59
2022/04/01 09:32:36;;;;;;;5.80;2.23;;;;;;;;;;5013761;28;20303;-59
2022/04/01 09:35:01;;;;;;;4.37;2.10;;;;;;;;;;5014169;28;20257;-59
2022/04/01 09:37:48;;;;;;;4.87;2.50;;;;;;;;;;5015065;28;20278;-58
2022/04/01 09:40:14;;;;;;;5.90;2.63;;;;;;;;;;5010965;28;20201;-58
2022/04/01 09:42:39;;;;;;;6.13;2.63;;;;;;;;;;5015055;28;20216;-58
2022/04/01 09:45:04;;;;;;;7.77;2.80;;;;;;;;;;5010169;28;20216;-58
2022/04/01 09:47:35;;;;;;;6.93;2.60;;;;;;;;;;5012558;28;20298;-58
2022/04/01 09:50:04;;;;;;;5.47;2.77;;;;;;;;;;5011789;28;20240;-59
2022/04/01 09:52:34;;;;;;;5.10;2.50;;;;;;;;;;5014836;28;20315;-59
2022/04/01 09:54:59;;;;;;;4.27;2.70;;;;;;;;;;5013932;28;20213;-58
2022/04/01 09:57:25;;;;;;;4.40;2.67;;;;;;;;;;5012752;28;20209;-58
2022/04/01 09:59:50;;;;;;;4.10;2.47;;;;;;;;;;5014297;28;20630;-58
2022/04/01 10:02:16;;;;;;;4.90;2.70;;;;;;;;;;5013039;28;20228;-58
2022/04/01 10:04:41;;;;;;;6.97;3.00;;;;;;;;;;5013343;28;20216;-58
2022/04/01 10:07:06;;;;;;;4.80;2.63;;;;;;;;;;5013204;28;20299;-58
2022/04/01 10:09:32;;;;;;;4.77;2.83;;;;;;;;;;5012680;28;20215;-58
2022/04/01 10:11:57;;;;;;;10.97;6.30;;;;;;;;;;5013479;28;20216;-58
2022/04/01 10:14:24;;;;;;;6.83;3.57;;;;;;;;;;5013200;28;20223;-58
2022/04/01 10:16:49;;;;;;;6.77;3.30;;;;;;;;;;5013892;28;20262;-58
2022/04/01 10:19:23;;;;;;;6.23;3.30;;;;;;;;;;5012607;28;20216;-58
2022/04/01 10:21:48;;;;;;;7.07;3.23;;;;;;;;;;5013901;28;20252;-58
2022/04/01 10:24:13;;;;;;;7.60;3.57;;;;;;;;;;5011935;28;20630;-57
2022/04/01 10:26:42;;;;;;;6.63;3.23;;;;;;;;;;5013625;28;20550;-57
2022/04/01 10:29:07;;;;;;;5.90;3.43;;;;;;;;;;5012712;28;20216;-62
2022/04/01 10:31:32;;;;;;;8.20;3.50;;;;;;;;;;5013666;28;20713;-57
2022/04/01 10:34:23;;;;;;;6.90;3.43;;;;;;;;;;5013857;28;20216;-57
2022/04/01 10:36:55;;;;;;;8.03;3.43;;;;;;;;;;5012919;28;20244;-57
2022/04/01 10:39:20;;;;;;;8.77;3.27;;;;;;;;;;5013661;28;20307;-57
2022/04/01 10:42:05;;;;;;;9.37;3.67;;;;;;;;;;5013875;28;20296;-57
2022/04/01 10:44:45;;;;;;;5.97;3.23;;;;;;;;;;5012621;28;20577;-56
2022/04/01 10:47:10;;;;;;;6.50;3.67;;;;;;;;;;5010139;28;20212;-57
2022/04/01 10:52:21;;;;;;;6.97;3.80;;;;;;;;;;5009822;28;20601;-57
2022/04/01 10:54:49;;;;;;;6.50;3.70;;;;;;;;;;4995077;28;20659;-57
2022/04/01 10:57:27;;;;;;;5.90;3.50;;;;;;;;;;5011583;28;20200;-57
2022/04/01 10:59:54;;;;;;;7.23;3.30;;;;;;;;;;5009815;28;20675;-57
2022/04/01 11:02:19;;;;;;;5.53;3.27;;;;;;;;;;5012498;28;20197;-57
2022/04/01 11:04:45;;;;;;;5.57;3.20;;;;;;;;;;5010621;28;20262;-58
2022/04/01 11:07:12;;;;;;;4.80;2.93;;;;;;;;;;5012157;28;20222;-57
2022/04/01 11:09:39;;;;;;;6.07;3.33;;;;;;;;;;5010663;28;20240;-58
2022/04/01 11:12:14;;;;;;;6.37;3.10;;;;;;;;;;5009835;28;20216;-58
2022/04/01 11:14:55;;;;;;;7.13;3.30;;;;;;;;;;4991524;28;20205;-58
2022/04/01 11:17:21;;;;;;;6.27;3.40;;;;;;;;;;4991189;28;20702;-58
2022/04/01 11:20:03;;;;;;;6.53;3.10;;;;;;;;;;4990941;28;20225;-58
2022/04/01 11:22:45;;;;;;;5.50;3.30;;;;;;;;;;4991218;28;20205;-58
2022/04/01 11:25:14;;;;;;;5.70;3.30;;;;;;;;;;4990755;28;20217;-58
2022/04/01 11:27:42;;;;;;;6.53;3.40;;;;;;;;;;4991413;28;20209;-58
2022/04/01 11:30:09;;;;;;;7.93;3.23;;;;;;;;;;4989279;28;20216;-58
2022/04/01 11:32:35;;;;;;;6.33;3.80;;;;;;;;;;4989277;28;20577;-58
2022/04/01 11:35:01;;;;;;;9.87;5.17;;;;;;;;;;4991075;28;20217;-59
2022/04/01 11:37:26;;;;;;;6.93;4.17;;;;;;;;;;4991441;28;20216;-58
2022/04/01 11:39:51;;;;;;;8.57;3.93;;;;;;;;;;4990505;28;20213;-58
2022/04/01 11:42:16;;;;;;;7.73;4.00;;;;;;;;;;4990919;28;20205;-58
2022/04/01 11:44:55;;;;;;;8.03;4.30;;;;;;;;;;4990854;28;20269;-57
2022/04/01 11:47:32;;;;;;;7.03;4.10;;;;;;;;;;4996061;28;20640;-58
2022/04/01 11:50:06;;;;;;;8.37;4.30;;;;;;;;;;5010424;28;20294;-57
2022/04/01 11:52:41;;;;;;;6.37;4.10;;;;;;;;;;5010599;28;20223;-57
2022/04/01 11:55:17;;;;;;;9.70;5.00;;;;;;;;;;5010138;28;20568;-57
2022/04/01 11:57:43;;;;;;;9.67;4.60;;;;;;;;;;5010786;28;20247;-58
2022/04/01 12:00:09;;;;;;;6.17;4.07;;;;;;;;;;5009253;28;20242;-57
2022/04/01 12:02:35;;;;;;;10.87;4.67;;;;;;;;;;5007980;28;20217;-57
2022/04/01 12:05:00;;;;;;;8.40;4.70;;;;;;;;;;5010227;28;20636;-59
2022/04/01 12:10:19;;;;;;;7.00;4.33;;;;;;;;;;5031513;28;20218;-57
2022/04/01 12:13:00;;;;;;;8.27;4.40;;;;;;;;;;5024843;28;20208;-58
2022/04/01 12:15:35;;;;;;;7.80;4.47;;;;;;;;;;5013148;28;20200;-57
2022/04/01 12:18:00;;;;;;;6.50;4.13;;;;;;;;;;5014464;28;20517;-57
2022/04/01 12:20:28;;;;;;;13.10;7.50;;;;;;;;;;5014175;28;20686;-57
2022/04/01 12:22:54;;;;;;;8.67;4.63;;;;;;;;;;5013735;28;20270;-57
2022/04/01 12:25:19;;;;;;;7.17;4.30;;;;;;;;;;5012112;28;20220;-58
2022/04/01 12:27:51;;;;;;;7.97;4.60;;;;;;;;;;5015453;28;20689;-56
2022/04/01 12:30:36;;;;;;;8.60;4.40;;;;;;;;;;5013614;28;20319;-57
2022/04/01 12:33:03;;;;;;;9.03;4.30;;;;;;;;;;5015849;28;20290;-57
2022/04/01 12:35:28;;;;;;;8.90;4.40;;;;;;;;;;5014730;28;20239;-57
2022/04/01 12:38:11;;;;;;;9.07;4.63;;;;;;;;;;5016039;28;20686;-57
2022/04/01 12:40:44;;;;;;;7.90;3.87;;;;;;;;;;5015850;28;20266;-56
2022/04/01 12:43:26;;;;;;;7.30;4.43;;;;;;;;;;5014318;28;20244;-57
2022/04/01 12:46:03;;;;;;;13.37;6.37;;;;;;;;;;5029059;28;20612;-60
2022/04/01 12:48:28;;;;;;;8.23;4.40;;;;;;;;;;5015419;28;20208;-61
2022/04/01 12:50:55;;;;;;;6.67;4.97;;;;;;;;;;5013012;28;20633;-61
2022/04/01 12:53:21;;;;;;;8.80;5.50;;;;;;;;;;5015504;28;20247;-61
2022/04/01 12:55:46;;;;;;;9.23;4.57;;;;;;;;;;5015870;28;20687;-61
2022/04/01 12:58:14;;;;;;;7.33;4.57;;;;;;;;;;5014715;28;20221;-61
2022/04/01 13:00:39;;;;;;;7.70;4.10;;;;;;;;;;5015287;28;20212;-62
2022/04/01 13:03:05;;;;;;;8.07;4.23;;;;;;;;;;5014796;28;20300;-62
2022/04/01 13:05:30;;;;;;;6.80;4.13;;;;;;;;;;5015671;28;20239;-62
2022/04/01 13:07:55;;;;;;;7.33;3.93;;;;;;;;;;5015612;28;20216;-61
2022/04/01 13:10:23;;;;;;;7.37;3.70;;;;;;;;;;5010602;28;20634;-61
2022/04/01 13:12:49;;;;;;;6.07;3.30;;;;;;;;;;5015276;28;20205;-62
2022/04/01 13:15:17;;;;;;;7.63;3.67;;;;;;;;;;5014736;28;20221;-62
2022/04/01 13:17:49;;;;;;;6.47;3.73;;;;;;;;;;5014466;28;20212;-62
2022/04/01 13:20:15;;;;;;;7.00;3.53;;;;;;;;;;5014412;28;20228;-62
2022/04/01 13:22:40;;;;;;;5.60;3.30;;;;;;;;;;5013363;28;20231;-62
2022/04/01 13:25:05;;;;;;;6.63;3.00;;;;;;;;;;5014117;28;20212;-62
2022/04/01 13:27:31;;;;;;;6.10;3.80;;;;;;;;;;5015399;28;20216;-62
2022/04/01 13:29:58;;;;;;;6.33;3.17;;;;;;;;;;5014774;28;20224;-62
2022/04/01 13:32:23;;;;;;;5.60;2.87;;;;;;;;;;5013752;28;20702;-62
2022/04/01 13:34:49;;;;;;;5.47;3.10;;;;;;;;;;5014800;28;20213;-62
2022/04/01 13:37:15;;;;;;;5.97;3.30;;;;;;;;;;5014680;28;20228;-62
2022/04/01 13:39:40;;;;;;;5.03;2.80;;;;;;;;;;5014297;28;20224;-62
2022/04/01 13:42:05;;;;;;;6.87;3.37;;;;;;;;;;5014529;28;20235;-62
2022/04/01 13:44:31;;;;;;;5.80;2.73;;;;;;;;;;5014644;28;20624;-62
2022/04/01 13:46:56;;;;;;;5.90;3.03;;;;;;;;;;5013573;28;20295;-64
2022/04/01 13:49:21;;;;;;;6.40;2.80;;;;;;;;;;5011391;28;20212;-64
2022/04/01 13:51:47;;;;;;;4.87;2.80;;;;;;;;;;5012658;28;20233;-64
2022/04/01 13:54:12;;;;;;;6.45;2.80;;;;;;;;;;5011586;28;20291;-64
2022/04/01 13:56:38;;;;;;;5.83;2.60;;;;;;;;;;5012817;28;20258;-64
2022/04/01 13:59:05;;;;;;;5.37;2.80;;;;;;;;;;5011821;28;20243;-63
2022/04/01 14:01:31;;;;;;;3.87;2.70;;;;;;;;;;5010693;28;20584;-64
2022/04/01 14:03:56;;;;;;;5.53;2.50;;;;;;;;;;5012519;28;20240;-64
2022/04/01 14:06:22;;;;;;;4.70;2.57;;;;;;;;;;5010306;28;20725;-64
2022/04/01 14:08:47;;;;;;;5.27;2.60;;;;;;;;;;5012550;28;20220;-64
2022/04/01 14:11:12;;;;;;;5.40;2.73;;;;;;;;;;5012033;28;20259;-64
2022/04/01 14:13:38;;;;;;;4.83;2.57;;;;;;;;;;5011479;28;20671;-64
2022/04/01 14:16:03;;;;;;;4.93;2.43;;;;;;;;;;5011801;28;20997;-63
2022/04/01 14:18:28;;;;;;;5.00;2.17;;;;;;;;;;5011066;28;20728;-64
2022/04/01 14:20:57;;;;;;;4.83;2.50;;;;;;;;;;5011489;28;20641;-64
2022/04/01 14:23:23;;;;;;;4.77;2.13;;;;;;;;;;5011862;28;20208;-64
2022/04/01 14:25:48;;;;;;;4.50;2.20;;;;;;;;;;5012069;28;20209;-64
2022/04/01 14:28:14;;;;;;;3.33;1.97;;;;;;;;;;5011070;28;20237;-64
2022/04/01 14:30:39;;;;;;;4.20;2.20;;;;;;;;;;5010872;28;20749;-64
2022/04/01 14:33:05;;;;;;;4.67;2.30;;;;;;;;;;5011467;28;20221;-63
2022/04/01 14:35:30;;;;;;;4.70;1.90;;;;;;;;;;5011071;28;20231;-64
2022/04/01 14:37:57;;;;;;;3.40;1.90;;;;;;;;;;5011872;28;20274;-64
2022/04/01 14:40:22;;;;;;;3.87;1.80;;;;;;;;;;5010296;28;20208;-64
2022/04/01 14:42:48;;;;;;;4.00;1.83;;;;;;;;;;5011213;28;20224;-64
2022/04/01 14:45:14;;;;;;;4.00;1.87;;;;;;;;;;5010974;28;20216;-64
2022/04/01 14:47:39;;;;;;;3.53;1.70;;;;;;;;;;5011677;28;20983;-64
2022/04/01 14:50:04;;;;;;;4.60;1.80;;;;;;;;;;5010191;28;20230;-64
2022/04/01 14:52:30;;;;;;;5.00;2.50;;;;;;;;;;5011566;28;20235;-64
2022/04/01 14:54:55;;;;;;;7.23;2.63;;;;;;;;;;5010402;28;20212;-64